Flight Track Log - Related Links

Times and Time Zones

All times are in EDT time to prevent confusion due to time zone crossing. See the PDT4314 flight status page for this flight to view local times or setup timezone preferences in your user account.

Time Position Orientation Groundspeed Altitude Reporting Facility
EDT Latitude Longitude Course Direction KTS MPH feet Rate Location/Type
Tue 06:03:00 PM 42.0464 -75.9266 180° South  Level Estimated
Tue 06:04:00 PM 41.9908 -75.9279 181° South  Level FlightAware Approximate
Tue 06:05:00 PM 41.9353 -75.9291 181° South  Level FlightAware Approximate
Tue 06:06:00 PM 41.8814 -75.9106 154° Southeast  Level Estimated
Tue 06:07:00 PM 41.8276 -75.8921 160° South  Level Estimated
Tue 06:08:00 PM 41.7723 -75.8848 174° South  Level FlightAware Approximate
Tue 06:09:00 PM 41.7185 -75.8661 159° South  Level Estimated
Tue 06:10:00 PM 41.6642 -75.8496 167° South  Level FlightAware Approximate
Tue 06:11:00 PM 41.6105 -75.8308 153° Southeast  Level Estimated
Tue 06:12:00 PM 41.5567 -75.8121 161° South  Level Estimated
Tue 06:13:00 PM 41.5040 -75.7886 162° South  Level FlightAware Approximate
Tue 06:14:00 PM 41.4512 -75.7652 162° South  Level FlightAware Approximate
Tue 06:15:00 PM 41.3985 -75.7417 162° South  Level FlightAware Approximate
Tue 06:16:00 PM 41.3446 -75.7236 162° South  Level Estimated
Tue 06:17:00 PM 41.2920 -75.6996 161° South  Level FlightAware Approximate
Tue 06:18:00 PM 41.2395 -75.6756 161° South  Level FlightAware Approximate
Tue 06:19:00 PM 41.1869 -75.6516 161° South  Level FlightAware Approximate
Tue 06:20:00 PM 41.1343 -75.6276 161° South  Level FlightAware Approximate
Tue 06:21:00 PM 41.0802 -75.6107 163° South  Level Estimated
Tue 06:22:00 PM 41.0275 -75.5873 161° South  Level FlightAware Approximate
Tue 06:23:00 PM 40.9748 -75.5639 161° South  Level FlightAware Approximate
Tue 06:24:00 PM 40.9221 -75.5406 161° South  Level FlightAware Approximate
Tue 06:25:00 PM 40.8694 -75.5173 162° South  Level FlightAware Approximate
Tue 06:26:00 PM 40.8150 -75.5020 190° South  Level Estimated
Tue 06:27:00 PM 40.7594 -75.5016 180° South  Level FlightAware Approximate
Tue 06:28:00 PM 40.7039 -75.5013 180° South  Level FlightAware Approximate
Tue 06:29:00 PM 40.6483 -75.5009 180° South  Level FlightAware Approximate
Tue 06:29:48 PM 40.6333 -75.6000 143° Southeast 220 253 5,000  Level Philadelphia TRACON
Tue 06:30:00 PM 40.5945 -75.4827 187° South  Level Estimated
Tue 06:30:30 PM 40.6000 -75.6000 180° South 221 254 5,000  Level Philadelphia TRACON
Tue 06:31:00 PM 40.5394 -75.4923 188° South  Level FlightAware Approximate
Tue 06:31:30 PM 40.5333 -75.5833 169° South 222 255 5,000  Level Philadelphia TRACON
Tue 06:32:00 PM 40.4860 -75.4720 190° South  Level Estimated
Tue 06:32:31 PM 40.4833 -75.5500 153° Southeast 230 265 5,000  Level Philadelphia TRACON
Tue 06:33:00 PM 40.4221 -75.4932 194° South  Level FlightAware Approximate
Tue 06:33:25 PM 40.4333 -75.5000 143° Southeast 223 257 5,000  Level Philadelphia TRACON
Tue 06:34:00 PM 40.3601 -75.4645 180° South  Level Estimated
Tue 06:34:25 PM 40.3833 -75.4500 143° Southeast 222 255 5,000  Level Philadelphia TRACON
Tue 06:35:00 PM 40.2980 -75.4358 143° Southeast  Level Estimated
Tue 06:35:31 PM 40.3333 -75.4000 143° Southeast 217 250 5,000  Level Philadelphia TRACON
Tue 06:36:30 PM 40.3000 -75.3500 131° Southeast 222 255 4,800 -350 Descending Philadelphia TRACON
Tue 06:37:31 PM 40.2333 -75.3000 150° Southeast 209 241 4,300 -417 Descending Philadelphia TRACON
Tue 06:38:25 PM 40.1833 -75.2833 166° South 209 241 4,000 -158 Descending Philadelphia TRACON
Tue 06:39:25 PM 40.1333 -75.2500 153° Southeast 212 244 4,000  Level Philadelphia TRACON
Tue 06:40:25 PM 40.0833 -75.2333 166° South 213 245 4,000  Level Philadelphia TRACON
Tue 06:41:25 PM 40.0167 -75.2000 159° South 214 246 4,000  Level Philadelphia TRACON
Tue 06:42:31 PM 39.9667 -75.1667 153° Southeast 216 249 4,000 -45 Level Philadelphia TRACON
Tue 06:43:37 PM 39.9000 -75.1500 169° South 217 250 3,900 -417 Descending Philadelphia TRACON
Tue 06:44:26 PM 39.8500 -75.1167 153° Southeast 190 219 3,200 -1,222 Descending Philadelphia TRACON
Tue 06:45:25 PM 39.8333 -75.1667 247° West 156 180 1,700 -1,311 Descending Philadelphia TRACON
Tue 06:46:25 PM 39.8500 -75.2167 293° West 119 137 600 -1,100 Descending Philadelphia TRACON

Login

Don't have an account? Register now (free) for customized features, flight alerts, and more!